Time;durP1;ratioP1;P1;durP2;ratioP2;P2;SDS_P1;SDS_P2;PMS_P1;PMS_P2;Temp;Humidity;BMP_temperature;BMP_pressure;BME280_temperature;BME280_humidity;BME280_pressure;Samples;Min_cycle;Max_cycle;Signal;HPM_P1;HPM_P2
2022/02/27 00:00:53;;;;;;;8.40;3.40;;;;;;;2.56;64.37;100901.83;108976;1277;137532;-59
2022/02/27 00:03:21;;;;;;;11.30;2.80;;;;;;;2.57;64.41;100901.73;109206;1276;23174;-59
2022/02/27 00:05:49;;;;;;;11.10;2.60;;;;;;;2.58;64.31;100900.85;109251;1277;22483;-59
2022/02/27 00:08:17;;;;;;;8.90;2.60;;;;;;;2.58;64.38;100897.25;109077;1276;138605;-59
2022/02/27 00:10:45;;;;;;;9.50;3.10;;;;;;;2.59;64.44;100898.46;109248;1277;22451;-59
2022/02/27 00:13:13;;;;;;;4.80;2.40;;;;;;;2.60;64.43;100901.55;109096;1277;137822;-59
2022/02/27 00:15:41;;;;;;;6.30;2.80;;;;;;;2.60;64.26;100899.46;109141;1277;22513;-59
2022/02/27 00:18:09;;;;;;;8.40;2.70;;;;;;;2.57;64.38;100900.58;108998;1277;137286;-59
2022/02/27 00:20:39;;;;;;;7.80;2.90;;;;;;;2.56;64.26;100903.48;109155;1277;22511;-59
2022/02/27 00:23:07;;;;;;;4.90;3.00;;;;;;;2.53;64.36;100903.48;109203;1277;22243;-60
2022/02/27 00:25:35;;;;;;;7.00;2.70;;;;;;;2.49;64.28;100900.45;109014;1277;137825;-59
2022/02/27 00:28:03;;;;;;;8.00;2.90;;;;;;;2.45;64.35;100897.23;109109;1277;23416;-60
2022/02/27 00:30:31;;;;;;;6.70;2.80;;;;;;;2.42;64.40;100896.39;109054;1277;138165;-60
2022/02/27 00:32:59;;;;;;;7.60;2.90;;;;;;;2.38;64.51;100895.55;109201;1277;22457;-60
2022/02/27 00:35:29;;;;;;;6.70;2.60;;;;;;;2.34;64.55;100900.11;109215;1277;22509;-60
2022/02/27 00:37:57;;;;;;;4.50;2.50;;;;;;;2.31;64.81;100900.63;109096;1277;137607;-60
2022/02/27 00:40:25;;;;;;;6.60;2.50;;;;;;;2.28;64.79;100907.70;109144;1277;22478;-60
2022/02/27 00:42:53;;;;;;;6.20;2.70;;;;;;;2.22;65.10;100903.49;109031;1277;137309;-60
2022/02/27 00:45:21;;;;;;;6.80;2.60;;;;;;;2.16;65.09;100904.86;109216;1275;24818;-60
2022/02/27 00:47:49;;;;;;;8.60;2.50;;;;;;;2.13;65.14;100902.31;109176;1277;22512;-60
2022/02/27 00:50:17;;;;;;;7.60;2.60;;;;;;;2.10;65.44;100900.66;109049;1277;137714;-60
2022/02/27 00:52:45;;;;;;;6.70;2.60;;;;;;;2.06;65.46;100896.83;109157;1277;22473;-60
2022/02/27 00:55:13;;;;;;;5.70;2.50;;;;;;;2.02;65.60;100899.39;109019;1277;137488;-60
2022/02/27 00:57:41;;;;;;;7.10;2.90;;;;;;;1.98;65.55;100901.52;109185;1277;22428;-61
2022/02/27 01:00:09;;;;;;;7.70;2.80;;;;;;;1.93;65.64;100897.41;108889;1277;138305;-60
2022/02/27 01:02:39;;;;;;;9.40;2.80;;;;;;;1.89;65.69;100896.46;108885;1280;22544;-60
2022/02/27 01:05:08;;;;;;;6.30;2.90;;;;;;;1.86;65.81;100896.52;109125;1277;22454;-60
2022/02/27 01:07:36;;;;;;;7.50;3.20;;;;;;;1.86;65.84;100896.05;109017;1277;137645;-60
2022/02/27 01:10:05;;;;;;;7.00;2.80;;;;;;;1.83;65.87;100898.52;109216;1277;22405;-60
2022/02/27 01:12:33;;;;;;;9.40;3.90;;;;;;;1.79;65.87;100891.83;108981;1277;137706;-60
2022/02/27 01:15:02;;;;;;;6.70;3.20;;;;;;;1.74;66.10;100898.88;109114;1277;22542;-60
2022/02/27 01:17:31;;;;;;;8.10;3.90;;;;;;;1.72;65.95;100897.05;109195;1277;22464;-60
2022/02/27 01:20:00;;;;;;;10.70;3.80;;;;;;;1.66;66.30;100896.77;108891;1277;136808;-60
2022/02/27 01:22:28;;;;;;;8.40;3.50;;;;;;;1.60;66.17;100891.85;108976;1277;23315;-60
2022/02/27 01:24:56;;;;;;;7.40;3.40;;;;;;;1.56;66.13;100892.86;108879;1277;136921;-60
2022/02/27 01:27:24;;;;;;;7.90;3.10;;;;;;;1.51;65.91;100893.45;109060;1277;22471;-60
2022/02/27 01:29:52;;;;;;;5.80;3.40;;;;;;;1.41;66.19;100891.46;109205;1277;22585;-60
2022/02/27 01:32:20;;;;;;;6.70;3.60;;;;;;;1.32;65.95;100891.20;109069;1277;137670;-60
2022/02/27 01:34:48;;;;;;;8.00;3.20;;;;;;;1.20;66.04;100890.67;109130;1277;22586;-60
2022/02/27 01:37:17;;;;;;;8.50;3.60;;;;;;;1.10;66.13;100887.27;109023;1277;137781;-60
2022/02/27 01:39:48;;;;;;;9.70;3.90;;;;;;;1.00;66.39;100886.36;108960;1277;22320;-59
2022/02/27 01:42:17;;;;;;;11.40;4.10;;;;;;;0.88;66.20;100890.73;109038;1277;144474;-59
2022/02/27 01:44:45;;;;;;;9.50;4.00;;;;;;;0.76;66.36;100888.95;109242;1277;23111;-60
2022/02/27 01:47:14;;;;;;;9.90;3.90;;;;;;;0.63;66.39;100884.73;109183;1277;22441;-60
2022/02/27 01:49:45;;;;;;;13.20;4.30;;;;;;;0.53;66.68;100886.02;109087;1277;136822;-60
2022/02/27 01:52:14;;;;;;;10.70;4.10;;;;;;;0.42;66.91;100883.75;109149;1277;23203;-60
2022/02/27 01:54:42;;;;;;;14.70;5.40;;;;;;;0.32;67.47;100880.30;109072;1277;138100;-60
2022/02/27 01:57:10;;;;;;;14.20;5.30;;;;;;;0.22;67.25;100882.45;105509;1277;24441;-60
2022/02/27 01:59:39;;;;;;;12.80;5.00;;;;;;;0.11;67.37;100881.39;108990;1277;22384;-60
2022/02/27 02:02:07;;;;;;;12.50;5.50;;;;;;;0.00;67.50;100877.71;109051;1277;137203;-59
2022/02/27 02:04:35;;;;;;;14.40;5.10;;;;;;;-0.10;67.95;100879.14;108986;1277;22654;-60
2022/02/27 02:07:04;;;;;;;19.10;6.00;;;;;;;-0.18;68.30;100881.20;108917;1277;139697;-60
2022/02/27 02:09:36;;;;;;;22.40;6.20;;;;;;;-0.24;68.35;100881.81;109192;1277;22478;-60
2022/02/27 02:12:05;;;;;;;16.70;6.60;;;;;;;-0.30;68.76;100881.91;108932;1277;138550;-61
2022/02/27 02:14:33;;;;;;;21.20;8.30;;;;;;;-0.39;68.80;100877.21;108997;1277;22425;-59
2022/02/27 02:17:01;;;;;;;24.20;9.10;;;;;;;-0.41;69.09;100874.20;108975;1277;22496;-60
2022/02/27 02:19:29;;;;;;;27.30;10.20;;;;;;;-0.44;69.28;100881.13;109027;1275;138869;-60
2022/02/27 02:22:17;;;;;;;;;;;;;;;-0.49;69.62;100880.43;109253;1277;23240;-59
2022/02/27 02:24:46;;;;;;;22.90;10.10;;;;;;;-0.55;69.49;100881.14;108892;1277;123658;-60
2022/02/27 02:27:15;;;;;;;21.60;9.20;;;;;;;-0.60;69.62;100886.89;109202;1277;22586;-59
2022/02/27 02:29:43;;;;;;;25.10;10.30;;;;;;;-0.66;69.76;100889.23;109165;1277;22485;-60
2022/02/27 02:32:13;;;;;;;20.50;10.10;;;;;;;-0.69;69.97;100894.52;109042;1277;138792;-59
2022/02/27 02:34:41;;;;;;;29.90;11.80;;;;;;;-0.74;70.13;100894.34;109158;1277;22569;-60
2022/02/27 02:37:10;;;;;;;26.60;10.10;;;;;;;-0.77;70.14;100894.61;109045;1277;139242;-59
2022/02/27 02:39:39;;;;;;;21.60;9.70;;;;;;;-0.80;70.30;100895.27;108909;1280;22531;-61
2022/02/27 02:42:08;;;;;;;17.10;8.50;;;;;;;-0.83;70.44;100901.63;109053;1277;138150;-60
2022/02/27 02:44:39;;;;;;;16.60;8.50;;;;;;;-0.87;70.61;100901.30;109153;1277;23241;-60
2022/02/27 02:47:07;;;;;;;20.40;9.80;;;;;;;-0.89;70.95;100901.31;109067;1277;22515;-60
2022/02/27 02:49:35;;;;;;;18.00;8.20;;;;;;;-0.90;71.25;100900.54;109053;1275;138227;-60
2022/02/27 02:52:03;;;;;;;16.80;8.20;;;;;;;-0.89;71.67;100902.95;108937;1278;23648;-61
2022/02/27 02:54:31;;;;;;;19.10;8.20;;;;;;;-0.86;72.07;100903.00;108892;1279;138936;-60
2022/02/27 02:56:59;;;;;;;19.80;7.40;;;;;;;-0.82;72.20;100905.25;109132;1277;22516;-60
2022/02/27 02:59:28;;;;;;;19.20;7.40;;;;;;;-0.77;72.59;100906.25;109270;1276;22466;-60
2022/02/27 03:01:56;;;;;;;18.40;7.40;;;;;;;-0.73;72.81;100907.98;109228;1276;139721;-60
2022/02/27 03:04:24;;;;;;;16.00;6.70;;;;;;;-0.70;73.06;100905.48;109272;1275;22425;-60
2022/02/27 03:06:52;;;;;;;15.20;7.10;;;;;;;-0.63;73.18;100911.95;109230;1274;138162;-60
2022/02/27 03:09:20;;;;;;;17.20;7.20;;;;;;;-0.58;73.31;100910.46;109336;1274;22424;-60
2022/02/27 03:11:48;;;;;;;15.10;7.90;;;;;;;-0.57;73.58;100907.95;109317;1275;23342;-60
2022/02/27 03:14:16;;;;;;;17.10;6.80;;;;;;;-0.51;73.60;100915.61;109165;1276;137760;-60
2022/02/27 03:16:44;;;;;;;18.30;6.70;;;;;;;-0.49;73.69;100920.59;109261;1275;22508;-60
2022/02/27 03:19:12;;;;;;;15.50;7.60;;;;;;;-0.47;73.58;100918.80;109168;1276;138890;-60
2022/02/27 03:21:40;;;;;;;16.90;8.30;;;;;;;-0.47;73.28;100919.50;109290;1275;22382;-60
2022/02/27 03:24:08;;;;;;;19.30;7.20;;;;;;;-0.48;73.44;100924.16;109109;1276;137818;-60
2022/02/27 03:26:37;;;;;;;21.80;7.50;;;;;;;-0.48;73.24;100925.96;109288;1276;22534;-60
2022/02/27 03:29:05;;;;;;;20.80;7.50;;;;;;;-0.49;73.54;100921.33;109323;1275;22519;-60
2022/02/27 03:31:34;;;;;;;16.80;7.20;;;;;;;-0.46;73.41;100932.40;109216;1274;139117;-59
2022/02/27 03:34:02;;;;;;;15.00;7.80;;;;;;;-0.46;73.60;100928.45;109290;1275;22562;-61
2022/02/27 03:36:30;;;;;;;16.40;7.40;;;;;;;-0.42;73.97;100932.52;109246;1274;138524;-60
2022/02/27 03:38:58;;;;;;;16.50;7.40;;;;;;;-0.39;74.21;100929.68;109313;1275;22476;-60
2022/02/27 03:41:25;;;;;;;20.60;8.70;;;;;;;-0.34;74.69;100933.71;109281;1274;23652;-60
2022/02/27 03:43:53;;;;;;;23.50;6.50;;;;;;;-0.29;74.43;100935.94;109209;1276;138150;-61
2022/02/27 03:46:21;;;;;;;19.50;6.60;;;;;;;-0.28;74.52;100936.64;109239;1275;22450;-59
2022/02/27 03:48:49;;;;;;;14.70;5.70;;;;;;;-0.22;74.86;100943.40;109138;1276;139538;-59
2022/02/27 03:51:17;;;;;;;10.50;5.00;;;;;;;-0.17;75.05;100943.76;109361;1274;22462;-60
2022/02/27 03:53:46;;;;;;;15.80;5.60;;;;;;;-0.10;75.13;100943.27;109366;1274;22459;-59
2022/02/27 03:56:16;;;;;;;15.80;7.30;;;;;;;-0.02;75.30;100937.77;107227;1274;137385;-59
2022/02/27 03:58:45;;;;;;;14.00;6.20;;;;;;;0.06;75.37;100941.83;104983;1277;22569;-59
2022/02/27 04:01:13;;;;;;;17.50;7.30;;;;;;;0.14;75.40;100942.20;104976;1274;138025;-59
2022/02/27 04:03:41;;;;;;;17.60;7.30;;;;;;;0.20;75.32;100937.79;109355;1274;23331;-59
2022/02/27 04:06:09;;;;;;;19.40;7.10;;;;;;;0.26;75.04;100945.98;109289;1274;138480;-59
2022/02/27 04:08:38;;;;;;;26.60;8.20;;;;;;;0.29;74.89;100952.75;109461;1274;23219;-59
2022/02/27 04:11:06;;;;;;;15.40;6.30;;;;;;;0.32;74.86;100957.30;109363;1274;22570;-59
2022/02/27 04:13:34;;;;;;;14.50;6.20;;;;;;;0.36;75.09;100954.63;109210;1274;138389;-59
2022/02/27 04:16:03;;;;;;;20.50;6.40;;;;;;;0.38;74.75;100954.77;109414;1274;22427;-58
2022/02/27 04:18:32;;;;;;;18.70;5.70;;;;;;;0.44;74.87;100964.89;109255;1274;138364;-59
2022/02/27 04:20:59;;;;;;;14.10;5.50;;;;;;;0.44;74.51;100956.98;109310;1275;22554;-59
2022/02/27 04:23:28;;;;;;;13.30;5.00;;;;;;;0.49;74.49;100963.09;109321;1274;22496;-60
2022/02/27 04:25:56;;;;;;;11.40;4.30;;;;;;;0.53;74.39;100962.15;109261;1276;141294;-60
2022/02/27 04:28:26;;;;;;;10.50;4.40;;;;;;;0.56;74.43;100964.30;109318;1275;22506;-59
2022/02/27 04:30:54;;;;;;;12.00;3.90;;;;;;;0.61;74.29;100968.63;109204;1275;139430;-59
2022/02/27 04:33:22;;;;;;;8.10;4.00;;;;;;;0.65;74.44;100970.92;109294;1275;22452;-59
2022/02/27 04:35:50;;;;;;;10.00;4.10;;;;;;;0.68;74.27;100973.08;109318;1274;22583;-59
2022/02/27 04:38:18;;;;;;;10.60;4.80;;;;;;;0.72;74.38;100973.23;109234;1274;137267;-59
2022/02/27 04:40:46;;;;;;;11.60;4.50;;;;;;;0.76;73.96;100975.82;109238;1276;22405;-59
2022/02/27 04:43:14;;;;;;;10.20;4.30;;;;;;;0.80;74.04;100972.92;109227;1274;137275;-59
2022/02/27 04:45:42;;;;;;;9.50;5.20;;;;;;;0.83;73.95;100971.34;109321;1274;23121;-59
2022/02/27 04:48:11;;;;;;;11.90;4.50;;;;;;;0.86;73.75;100969.98;109280;1274;139153;-59
2022/02/27 04:50:39;;;;;;;10.20;4.50;;;;;;;0.88;73.90;100977.76;109351;1274;23089;-58
2022/02/27 04:53:07;;;;;;;10.90;5.00;;;;;;;0.91;73.79;100981.46;109445;1274;23256;-59
2022/02/27 04:55:35;;;;;;;15.20;4.50;;;;;;;0.90;73.85;100981.33;109296;1274;139466;-59
2022/02/27 04:58:12;;;;;;;9.50;4.20;;;;;;;0.91;73.59;100983.02;109421;1274;22444;-59
2022/02/27 05:00:40;;;;;;;9.40;3.60;;;;;;;0.94;73.38;100984.81;109287;1274;138889;-59
2022/02/27 05:03:08;;;;;;;7.50;3.60;;;;;;;0.95;73.52;100985.26;109388;1274;22402;-60
2022/02/27 05:05:38;;;;;;;9.20;3.80;;;;;;;0.97;73.56;100984.70;109408;1274;22422;-59
2022/02/27 05:08:06;;;;;;;8.60;3.40;;;;;;;0.98;73.50;100984.58;109190;1272;137437;-60
2022/02/27 05:10:36;;;;;;;8.40;3.70;;;;;;;1.00;73.36;100983.15;109399;1274;22467;-59
2022/02/27 05:13:04;;;;;;;9.40;4.40;;;;;;;1.00;73.39;100977.19;109265;1274;138163;-59
2022/02/27 05:15:32;;;;;;;7.90;3.70;;;;;;;1.05;73.31;100980.64;109384;1274;22519;-59
2022/02/27 05:18:01;;;;;;;10.30;4.50;;;;;;;1.04;73.25;100978.58;109246;1274;138154;-59
2022/02/27 05:20:30;;;;;;;7.90;4.00;;;;;;;1.02;72.85;100979.84;109392;1274;22491;-59
2022/02/27 05:22:58;;;;;;;10.50;4.20;;;;;;;1.01;73.06;100978.44;109388;1274;23242;-59
2022/02/27 05:25:26;;;;;;;9.00;3.40;;;;;;;1.00;73.14;100978.55;109274;1274;138016;-59
2022/02/27 05:27:54;;;;;;;7.80;3.70;;;;;;;0.98;73.28;100977.05;109331;1274;22471;-59
2022/02/27 05:30:23;;;;;;;9.60;3.50;;;;;;;1.00;72.98;100979.78;109277;1274;138036;-59
2022/02/27 05:33:14;;;;;;;10.20;3.90;;;;;;;1.02;73.02;100982.69;109325;1274;22510;-59
2022/02/27 05:35:43;;;;;;;9.00;3.50;;;;;;;1.05;73.32;100980.13;109384;1274;22459;-58
2022/02/27 05:38:11;;;;;;;10.10;3.40;;;;;;;1.09;73.18;100984.02;109287;1274;138663;-59
2022/02/27 05:40:40;;;;;;;9.80;3.40;;;;;;;1.14;73.05;100984.44;109395;1274;22439;-60
2022/02/27 05:43:09;;;;;;;8.70;3.60;;;;;;;1.18;72.85;100983.80;109264;1274;137399;-60
2022/02/27 05:45:37;;;;;;;10.10;4.40;;;;;;;1.20;73.00;100978.89;109398;1274;22524;-60
2022/02/27 05:48:05;;;;;;;8.20;3.80;;;;;;;1.27;72.97;100986.08;109268;1274;137569;-59
2022/02/27 05:50:34;;;;;;;7.00;3.30;;;;;;;1.32;72.29;100989.99;109306;1275;22493;-60
2022/02/27 05:53:03;;;;;;;11.60;4.50;;;;;;;1.35;72.48;100989.95;109333;1275;22431;-58
2022/02/27 05:55:31;;;;;;;8.70;4.00;;;;;;;1.38;72.20;100988.96;109232;1274;137662;-59
2022/02/27 05:58:01;;;;;;;8.40;3.80;;;;;;;1.40;71.88;100989.11;109284;1276;22433;-59
2022/02/27 06:00:29;;;;;;;9.00;3.80;;;;;;;1.43;71.91;100989.92;109202;1274;137550;-58
2022/02/27 06:02:58;;;;;;;11.90;4.70;;;;;;;1.46;71.78;100994.05;109229;1274;22455;-60
2022/02/27 06:05:26;;;;;;;13.90;4.00;;;;;;;1.48;71.70;100993.81;109333;1274;22527;-59
2022/02/27 06:07:56;;;;;;;8.80;4.20;;;;;;;1.50;71.88;100993.05;109189;1275;138554;-60
2022/02/27 06:10:24;;;;;;;7.40;3.40;;;;;;;1.51;71.57;100995.95;109367;1275;24580;-60
2022/02/27 06:12:52;;;;;;;11.70;4.20;;;;;;;1.53;71.28;100998.88;109237;1274;138820;-60
2022/02/27 06:15:21;;;;;;;8.50;3.70;;;;;;;1.53;71.19;100997.40;109357;1274;22364;-60
2022/02/27 06:17:49;;;;;;;9.00;3.60;;;;;;;1.55;71.34;101001.71;109340;1274;22473;-60
2022/02/27 06:20:18;;;;;;;9.30;4.50;;;;;;;1.57;71.20;100999.80;109230;1274;137308;-60
2022/02/27 06:22:48;;;;;;;10.40;4.20;;;;;;;1.60;71.10;101002.68;109378;1274;22487;-60
2022/02/27 06:25:17;;;;;;;12.70;3.60;;;;;;;1.63;70.95;101002.70;109299;1274;138990;-60
2022/02/27 06:27:46;;;;;;;9.40;4.70;;;;;;;1.67;70.86;101001.77;109365;1274;22404;-60
2022/02/27 06:30:21;;;;;;;8.70;4.40;;;;;;;1.71;70.90;101004.00;109302;1274;137285;-59
2022/02/27 06:32:50;;;;;;;15.70;8.30;;;;;;;1.75;70.67;101003.55;109402;1274;22451;-60
2022/02/27 06:35:21;;;;;;;13.10;5.50;;;;;;;1.75;70.32;101006.59;109060;1274;22567;-60
2022/02/27 06:37:52;;;;;;;11.90;4.90;;;;;;;1.74;70.13;101006.20;109222;1274;137364;-60
2022/02/27 06:40:21;;;;;;;11.30;4.90;;;;;;;1.74;70.12;101005.54;109402;1274;22245;-60
2022/02/27 06:42:50;;;;;;;20.50;11.10;;;;;;;1.73;70.06;101006.48;109187;1275;138271;-59
2022/02/27 06:45:19;;;;;;;81.00;27.90;;;;;;;1.74;69.60;101009.44;109358;1274;22497;-60
2022/02/27 06:47:47;;;;;;;28.10;10.00;;;;;;;1.74;69.80;101007.69;109316;1275;22404;-58
2022/02/27 06:50:16;;;;;;;71.20;25.80;;;;;;;1.74;69.60;101012.65;109272;1274;138866;-59
2022/02/27 06:52:44;;;;;;;29.00;11.20;;;;;;;1.74;69.23;101012.96;109402;1274;22987;-60
2022/02/27 06:55:15;;;;;;;17.20;6.50;;;;;;;1.75;69.02;101014.71;109238;1274;139007;-60
2022/02/27 06:57:44;;;;;;;9.50;4.40;;;;;;;1.76;68.88;101012.59;109363;1274;23325;-60
2022/02/27 07:00:15;;;;;;;9.00;3.40;;;;;;;1.75;68.38;101010.75;109232;1274;139009;-60
2022/02/27 07:02:44;;;;;;;12.30;4.60;;;;;;;1.78;68.18;101018.85;109379;1274;22486;-60
2022/02/27 07:05:13;;;;;;;11.30;4.20;;;;;;;1.83;68.01;101018.38;109387;1274;22477;-60
2022/02/27 07:07:42;;;;;;;13.80;5.60;;;;;;;1.87;67.73;101018.84;109339;1274;139188;-60
2022/02/27 07:10:10;;;;;;;11.40;4.90;;;;;;;1.89;67.82;101014.30;109383;1274;22678;-60
2022/02/27 07:12:40;;;;;;;7.90;4.20;;;;;;;1.91;67.25;101011.59;109272;1274;140307;-60
2022/02/27 07:15:09;;;;;;;15.40;7.10;;;;;;;1.97;66.82;101013.59;109348;1274;22392;-60
2022/02/27 07:17:37;;;;;;;38.10;14.80;;;;;;;2.02;66.34;101018.45;109314;1274;22551;-60
2022/02/27 07:20:06;;;;;;;70.00;26.30;;;;;;;2.07;65.80;101017.36;109244;1274;137906;-60
2022/02/27 07:22:36;;;;;;;56.90;20.50;;;;;;;2.13;65.48;101011.48;109373;1274;23174;-60
2022/02/27 07:25:06;;;;;;;78.90;27.90;;;;;;;2.20;64.39;101012.36;109287;1273;137970;-60
2022/02/27 07:27:35;;;;;;;72.40;26.20;;;;;;;2.29;64.11;101011.95;109302;1275;22508;-60
2022/02/27 07:30:04;;;;;;;42.00;15.80;;;;;;;2.36;63.63;101010.25;109198;1274;162154;-60
2022/02/27 07:32:32;;;;;;;62.20;23.90;;;;;;;2.40;62.80;101011.56;109292;1275;22445;-60
2022/02/27 07:35:01;;;;;;;107.20;36.50;;;;;;;2.46;62.43;101008.15;109252;1274;22487;-61
2022/02/27 07:37:47;;;;;;;26.00;9.80;;;;;;;2.53;61.08;101009.91;109243;1274;138435;-60
2022/02/27 07:40:15;;;;;;;94.50;32.40;;;;;;;2.59;60.72;101010.17;109333;1274;22646;-60
2022/02/27 07:42:43;;;;;;;51.00;18.00;;;;;;;2.66;60.04;101009.35;109286;1274;137697;-61
2022/02/27 07:45:31;;;;;;;14.10;5.90;;;;;;;2.76;59.02;101010.05;109363;1274;23152;-60
2022/02/27 07:48:00;;;;;;;16.10;5.10;;;;;;;2.84;57.57;101007.14;109362;1275;22505;-60
2022/02/27 07:50:28;;;;;;;7.70;2.50;;;;;;;2.94;56.56;101009.80;109215;1276;137236;-60
2022/02/27 07:52:56;;;;;;;7.30;3.00;;;;;;;3.00;55.56;101006.84;109339;1274;22634;-61
2022/02/27 07:55:27;;;;;;;49.50;19.10;;;;;;;3.05;55.37;101004.96;109201;1274;137214;-60
2022/02/27 07:57:55;;;;;;;13.40;5.80;;;;;;;3.09;55.35;101002.70;109329;1275;22771;-60
2022/02/27 08:00:24;;;;;;;34.00;13.70;;;;;;;3.17;55.25;101008.92;109224;1274;137936;-60
2022/02/27 08:02:53;;;;;;;36.70;15.10;;;;;;;3.25;54.88;101010.79;109410;1274;22523;-60
2022/02/27 08:05:22;;;;;;;19.90;8.30;;;;;;;3.33;54.92;101009.38;109399;1274;22406;-60
2022/02/27 08:07:51;;;;;;;9.30;4.10;;;;;;;3.40;54.69;101005.08;109309;1274;137672;-60
2022/02/27 08:10:19;;;;;;;4.40;2.70;;;;;;;3.49;54.33;101007.89;109412;1274;23643;-60
2022/02/27 08:12:48;;;;;;;3.80;2.40;;;;;;;3.56;53.92;101002.88;109231;1275;138241;-60
2022/02/27 08:15:17;;;;;;;6.10;2.50;;;;;;;3.63;53.08;101003.73;109374;1274;23469;-60
2022/02/27 08:17:45;;;;;;;4.40;2.50;;;;;;;3.65;52.67;101010.06;109305;1274;22518;-60
2022/02/27 08:20:14;;;;;;;8.00;3.00;;;;;;;3.69;52.71;101003.17;109246;1274;137492;-60
2022/02/27 08:22:43;;;;;;;5.30;2.40;;;;;;;3.74;52.52;101002.38;109349;1274;22452;-60
2022/02/27 08:25:15;;;;;;;5.90;2.80;;;;;;;3.81;52.30;101002.16;109268;1274;138696;-59
2022/02/27 08:27:45;;;;;;;6.90;3.10;;;;;;;3.87;50.93;101001.76;109371;1274;22525;-60
2022/02/27 08:30:13;;;;;;;8.60;3.00;;;;;;;3.90;50.78;100997.81;109120;1276;137705;-60
2022/02/27 08:32:42;;;;;;;3.70;1.90;;;;;;;3.93;50.76;100994.52;109332;1276;22274;-60
2022/02/27 08:35:10;;;;;;;3.60;1.50;;;;;;;3.94;50.46;100991.29;109284;1275;23683;-60
2022/02/27 08:37:40;;;;;;;2.60;1.10;;;;;;;3.95;49.97;100992.27;109238;1275;137835;-60
2022/02/27 08:40:08;;;;;;;1.20;0.90;;;;;;;3.96;49.79;100990.02;109336;1275;22441;-59
2022/02/27 08:42:39;;;;;;;3.00;1.00;;;;;;;3.98;49.94;100987.39;109155;1275;137083;-60
2022/02/27 08:45:09;;;;;;;3.90;1.70;;;;;;;4.04;49.28;100988.90;109200;1276;23293;-60
2022/02/27 08:47:37;;;;;;;11.20;5.40;;;;;;;4.09;48.69;100989.70;109322;1276;22264;-60
2022/02/27 08:50:06;;;;;;;12.10;5.80;;;;;;;4.11;48.67;100988.98;109132;1276;138564;-60
2022/02/27 08:52:38;;;;;;;3.50;1.60;;;;;;;4.12;48.63;100984.62;109380;1274;22500;-59
2022/02/27 08:55:07;;;;;;;2.90;1.20;;;;;;;4.13;48.35;100975.18;109214;1274;137642;-60
2022/02/27 08:57:36;;;;;;;2.70;1.60;;;;;;;4.19;48.05;100975.33;109307;1276;23430;-59
2022/02/27 09:00:09;;;;;;;6.70;3.20;;;;;;;4.23;47.91;100976.84;109238;1275;137382;-60
2022/02/27 09:02:39;;;;;;;1.30;0.70;;;;;;;4.24;47.55;100970.09;109206;1274;23366;-60
2022/02/27 09:05:09;;;;;;;2.30;1.00;;;;;;;4.26;47.30;100969.36;109287;1274;23369;-60
2022/02/27 09:07:57;;;;;;;3.90;1.30;;;;;;;4.29;47.10;100973.91;109190;1275;138417;-60
2022/02/27 09:10:28;;;;;;;3.50;0.80;;;;;;;4.30;46.48;100971.20;109301;1276;23254;-60
2022/02/27 09:12:57;;;;;;;7.50;4.20;;;;;;;4.30;46.58;100971.03;109220;1276;137137;-60
2022/02/27 09:15:25;;;;;;;7.30;3.80;;;;;;;4.29;46.73;100973.37;109298;1275;23244;-60
2022/02/27 09:17:55;;;;;;;3.30;1.60;;;;;;;4.29;46.75;100970.71;109316;1275;23509;-60
2022/02/27 09:20:24;;;;;;;5.00;2.40;;;;;;;4.28;46.45;100971.48;109234;1275;138024;-60
2022/02/27 09:22:52;;;;;;;3.30;1.20;;;;;;;4.27;46.32;100980.02;109324;1275;22577;-60
2022/02/27 09:25:21;;;;;;;3.90;1.00;;;;;;;4.21;46.16;100972.27;109182;1275;137385;-60
2022/02/27 09:28:09;;;;;;;3.80;1.50;;;;;;;4.17;46.52;100970.27;109303;1276;23456;-58
2022/02/27 09:30:38;;;;;;;2.10;1.40;;;;;;;4.15;46.68;100971.77;109205;1275;138498;-58
2022/02/27 09:33:07;;;;;;;2.40;0.60;;;;;;;4.16;46.43;100973.65;109258;1275;23510;-60
2022/02/27 09:35:36;;;;;;;1.10;0.70;;;;;;;4.16;46.33;100975.33;109357;1276;22576;-59
2022/02/27 09:38:05;;;;;;;3.30;1.00;;;;;;;4.16;46.15;100972.73;109174;1274;137951;-60
2022/02/27 09:40:33;;;;;;;2.60;0.80;;;;;;;4.14;46.26;100968.90;109282;1276;22919;-59
2022/02/27 09:43:02;;;;;;;2.90;0.90;;;;;;;4.13;45.92;100970.49;109171;1276;137137;-59
2022/02/27 09:45:31;;;;;;;5.60;0.70;;;;;;;4.13;46.00;100967.70;109291;1276;22487;-59
2022/02/27 09:48:00;;;;;;;1.30;0.80;;;;;;;4.18;45.82;100974.30;109288;1275;22521;-59
2022/02/27 09:50:30;;;;;;;1.40;0.70;;;;;;;4.22;45.76;100972.77;109113;1276;136967;-59
2022/02/27 09:52:58;;;;;;;3.30;1.30;;;;;;;4.25;45.91;100966.51;109308;1275;23423;-58
2022/02/27 09:55:27;;;;;;;3.30;1.20;;;;;;;4.27;46.09;100961.27;109217;1276;137792;-58
2022/02/27 09:57:58;;;;;;;2.70;1.20;;;;;;;4.34;45.97;100965.73;109296;1276;22684;-59
2022/02/27 10:00:27;;;;;;;3.90;1.40;;;;;;;4.41;45.38;100964.86;109189;1274;137311;-59
2022/02/27 10:03:12;;;;;;;2.90;0.90;;;;;;;4.44;45.94;100960.73;109323;1275;22972;-59
2022/02/27 10:05:45;;;;;;;3.50;1.20;;;;;;;4.48;45.55;100960.60;109330;1274;22404;-59
2022/02/27 10:08:15;;;;;;;4.00;1.20;;;;;;;4.46;45.08;100962.04;109168;1276;137379;-59
2022/02/27 10:10:56;;;;;;;2.40;1.50;;;;;;;4.43;45.07;100959.45;109334;1274;22405;-59
2022/02/27 10:13:41;;;;;;;3.50;2.50;;;;;;;4.38;45.39;100962.19;109224;1275;138463;-59
2022/02/27 10:16:14;;;;;;;5.00;2.40;;;;;;;4.36;45.12;100954.50;109275;1275;22447;-59
2022/02/27 10:18:59;;;;;;;5.20;3.30;;;;;;;4.37;45.15;100955.41;109234;1274;137940;-60
2022/02/27 10:21:48;;;;;;;3.80;1.30;;;;;;;4.43;44.62;100951.70;109312;1276;22406;-59
2022/02/27 10:24:19;;;;;;;5.40;2.60;;;;;;;4.47;44.71;100953.12;109217;1275;137834;-59
2022/02/27 10:26:48;;;;;;;4.00;2.00;;;;;;;4.52;44.80;100944.41;109308;1275;23303;-60
2022/02/27 10:29:21;;;;;;;4.10;2.30;;;;;;;4.56;44.21;100943.90;109295;1276;23617;-59
2022/02/27 10:31:52;;;;;;;1.90;1.00;;;;;;;4.59;44.21;100942.02;109221;1275;137073;-59
2022/02/27 10:34:26;;;;;;;1.30;0.80;;;;;;;4.63;44.77;100943.98;109335;1274;23674;-59
2022/02/27 10:37:08;;;;;;;3.80;0.80;;;;;;;4.69;44.22;100943.33;109015;1276;137122;-55
2022/02/27 10:39:48;;;;;;;3.00;0.80;;;;;;;4.73;44.23;100945.92;109340;1275;23347;-55
2022/02/27 10:42:21;;;;;;;4.20;1.20;;;;;;;4.73;44.44;100946.77;109188;1275;137419;-55
2022/02/27 10:44:55;;;;;;;2.30;0.90;;;;;;;4.74;44.46;100949.56;109303;1274;22527;-55
2022/02/27 10:47:34;;;;;;;3.80;1.10;;;;;;;4.74;43.70;100947.06;109284;1275;22519;-58
2022/02/27 10:50:13;;;;;;;3.20;1.60;;;;;;;4.70;43.52;100947.30;109235;1276;137130;-55
2022/02/27 10:52:45;;;;;;;2.40;0.90;;;;;;;4.65;43.82;100943.64;109344;1274;23806;-55
2022/02/27 10:55:14;;;;;;;5.30;2.80;;;;;;;4.65;43.62;100943.79;109261;1274;137627;-55
2022/02/27 10:57:46;;;;;;;1.90;1.10;;;;;;;4.67;43.34;100940.27;109333;1275;22675;-55
2022/02/27 11:00:18;;;;;;;2.10;0.80;;;;;;;4.70;43.37;100943.96;109211;1275;138339;-55
2022/02/27 11:02:52;;;;;;;6.20;3.10;;;;;;;4.73;43.12;100938.02;109291;1275;22365;-55
2022/02/27 11:05:22;;;;;;;3.40;0.90;;;;;;;4.76;43.25;100939.19;109343;1275;22466;-55
2022/02/27 11:07:57;;;;;;;2.60;1.00;;;;;;;4.82;42.98;100935.95;109194;1275;137158;-55
2022/02/27 11:10:36;;;;;;;7.40;3.10;;;;;;;4.89;43.33;100934.16;109296;1276;22577;-55
2022/02/27 11:13:06;;;;;;;3.80;1.80;;;;;;;4.95;42.64;100925.51;109216;1275;139555;-54
2022/02/27 11:15:35;;;;;;;4.80;1.80;;;;;;;4.97;42.67;100927.37;109334;1275;22454;-54
2022/02/27 11:18:04;;;;;;;9.80;4.20;;;;;;;4.97;42.78;100920.59;109310;1276;22469;-55
2022/02/27 11:20:33;;;;;;;3.40;1.80;;;;;;;4.95;42.87;100918.11;109231;1274;138573;-55
2022/02/27 11:23:01;;;;;;;7.70;4.10;;;;;;;4.91;42.64;100917.86;109353;1275;23661;-55
2022/02/27 11:25:30;;;;;;;1.80;1.20;;;;;;;4.87;42.79;100915.39;109263;1274;137862;-55
2022/02/27 11:28:10;;;;;;;7.20;3.90;;;;;;;4.84;43.17;100920.16;109345;1275;22462;-56